createdAt,value
2019-01-25T00:02:30.417Z,40.15
2019-01-25T00:05:01.123Z,39.27
2019-01-25T00:07:31.956Z,38.13
2019-01-25T00:10:02.441Z,45.83
2019-01-25T00:12:33.283Z,38.00
2019-01-25T00:15:05.303Z,40.88
2019-01-25T00:17:36.154Z,36.50
2019-01-25T00:20:08.055Z,47.40
2019-01-25T00:22:38.712Z,43.20
2019-01-25T00:25:09.523Z,47.87
2019-01-25T00:27:40.276Z,37.30
2019-01-25T00:30:13.305Z,40.83
2019-01-25T00:32:44.108Z,38.58
2019-01-25T00:35:14.628Z,42.00
2019-01-25T00:37:45.300Z,37.40
2019-01-25T00:40:17.029Z,41.42
2019-01-25T00:42:47.645Z,38.17
2019-01-25T00:45:18.409Z,37.63
2019-01-25T00:47:49.269Z,35.30
2019-01-25T00:50:20.586Z,33.87
2019-01-25T00:52:51.413Z,36.33
2019-01-25T00:55:22.486Z,38.02
2019-01-25T00:57:53.353Z,36.20
2019-01-25T01:00:26.069Z,37.85
2019-01-25T01:02:56.603Z,38.00
2019-01-25T01:05:27.234Z,38.27
2019-01-25T01:07:57.734Z,35.40
2019-01-25T01:10:28.546Z,32.50
2019-01-25T01:12:59.435Z,39.57
2019-01-25T01:15:30.312Z,33.50
2019-01-25T01:18:00.838Z,34.10
2019-01-25T01:20:31.432Z,33.93
2019-01-25T01:23:02.338Z,32.60
2019-01-25T01:25:32.851Z,33.03
2019-01-25T01:28:03.410Z,32.03
2019-01-25T01:30:33.944Z,34.27
2019-01-25T01:33:04.442Z,38.93
2019-01-25T01:35:35.252Z,35.27
2019-01-25T01:38:06.018Z,29.73
2019-01-25T01:40:36.542Z,34.10
2019-01-25T01:43:07.057Z,37.30
2019-01-25T01:45:37.571Z,32.40
2019-01-25T01:48:08.393Z,34.23
2019-01-25T01:50:39.229Z,32.17
2019-01-25T01:53:09.753Z,28.33
2019-01-25T01:55:40.298Z,29.97
2019-01-25T01:58:10.813Z,25.97
2019-01-25T02:00:41.497Z,31.30
2019-01-25T02:03:12.525Z,31.03
2019-01-25T02:05:43.279Z,31.97
2019-01-25T02:08:14.638Z,35.70
2019-01-25T02:10:45.396Z,26.33
2019-01-25T02:13:16.470Z,31.70
2019-01-25T02:15:47.125Z,32.57
2019-01-25T02:18:17.762Z,27.70
2019-01-25T02:20:48.392Z,33.70
2019-01-25T02:23:18.935Z,33.40
2019-01-25T02:25:49.467Z,32.63
2019-01-25T02:28:20.563Z,32.08
2019-01-25T02:30:51.061Z,30.00
2019-01-25T02:33:21.742Z,30.63
2019-01-25T02:35:52.475Z,31.47
2019-01-25T02:38:22.992Z,35.23
2019-01-25T02:40:53.531Z,28.40
2019-01-25T02:43:24.671Z,29.45
2019-01-25T02:45:55.201Z,31.13
2019-01-25T02:48:25.742Z,34.27
2019-01-25T02:50:56.889Z,33.03
2019-01-25T02:53:27.400Z,31.60
2019-01-25T02:55:57.905Z,31.77
2019-01-25T02:58:28.692Z,27.05
2019-01-25T03:00:59.495Z,34.27
2019-01-25T03:03:30.016Z,33.70
2019-01-25T03:06:00.584Z,34.53
2019-01-25T03:08:31.461Z,32.00
2019-01-25T03:11:02.046Z,31.33
2019-01-25T03:13:32.570Z,32.90
2019-01-25T03:16:03.150Z,33.07
2019-01-25T03:18:33.645Z,30.63
2019-01-25T03:21:05.081Z,27.93
2019-01-25T03:23:35.698Z,32.00
2019-01-25T03:26:06.545Z,33.47
2019-01-25T03:28:37.030Z,29.63
2019-01-25T03:31:07.607Z,32.67
2019-01-25T03:33:38.134Z,27.20
2019-01-25T03:36:08.619Z,34.33
2019-01-25T03:38:39.393Z,30.27
2019-01-25T03:41:09.922Z,31.97
2019-01-25T03:43:40.492Z,33.00
2019-01-25T03:46:11.028Z,32.20
2019-01-25T03:48:41.718Z,30.20
2019-01-25T03:51:12.587Z,26.50
2019-01-25T03:53:43.140Z,30.97
2019-01-25T03:56:14.893Z,30.95
2019-01-25T03:58:45.644Z,34.60
2019-01-25T04:01:16.760Z,33.70
2019-01-25T04:03:47.356Z,30.57
2019-01-25T04:06:18.006Z,28.17
2019-01-25T04:08:48.596Z,36.50
2019-01-25T04:11:19.240Z,47.20
2019-01-25T04:13:49.746Z,49.60
2019-01-25T04:16:20.856Z,52.45
2019-01-25T04:18:51.728Z,42.23
2019-01-25T04:21:22.532Z,32.88
2019-01-25T04:23:53.082Z,28.50
2019-01-25T04:26:23.643Z,33.70
2019-01-25T04:28:54.115Z,31.67
2019-01-25T04:31:24.979Z,33.25
2019-01-25T04:33:55.757Z,31.17
2019-01-25T04:36:26.588Z,37.33
2019-01-25T04:38:57.092Z,32.47
2019-01-25T04:41:27.641Z,35.87
2019-01-25T04:43:58.122Z,32.20
2019-01-25T04:46:28.931Z,33.23
2019-01-25T04:48:59.754Z,34.80
2019-01-25T04:51:30.259Z,30.83
2019-01-25T04:54:00.808Z,34.80
2019-01-25T04:56:37.806Z,28.13
2019-01-25T04:59:08.617Z,35.43
2019-01-25T05:01:39.135Z,35.10
2019-01-25T05:04:09.969Z,35.83
2019-01-25T05:06:40.792Z,32.23
2019-01-25T05:09:11.587Z,28.80
2019-01-25T05:11:42.066Z,31.60
2019-01-25T05:14:12.743Z,33.00
2019-01-25T05:16:43.247Z,30.87
2019-01-25T05:19:14.978Z,32.75
2019-01-25T05:21:45.843Z,28.42
2019-01-25T05:24:16.642Z,28.70
2019-01-25T05:26:47.151Z,33.67
2019-01-25T05:29:22.289Z,34.77
2019-01-25T05:31:52.782Z,30.93
2019-01-25T05:34:23.298Z,33.58
2019-01-25T05:36:53.886Z,31.50
2019-01-25T05:39:24.658Z,33.28
2019-01-25T05:41:55.261Z,32.80
2019-01-25T05:44:25.851Z,31.03
2019-01-25T05:46:56.684Z,33.15
2019-01-25T05:49:27.296Z,36.23
2019-01-25T05:51:57.931Z,31.63
2019-01-25T05:54:28.736Z,32.48
2019-01-25T05:56:59.242Z,34.10
2019-01-25T05:59:29.766Z,33.17
2019-01-25T06:02:00.289Z,38.97
2019-01-25T06:04:36.887Z,33.98
2019-01-25T06:07:07.551Z,32.57
2019-01-25T06:09:38.067Z,38.37
2019-01-25T06:12:08.796Z,43.23
2019-01-25T06:14:39.346Z,38.13
2019-01-25T06:17:09.882Z,32.53
2019-01-25T06:19:40.657Z,34.18
2019-01-25T06:22:11.172Z,31.73
2019-01-25T06:24:46.739Z,36.77
2019-01-25T06:27:17.401Z,36.83
2019-01-25T06:29:47.935Z,33.83
2019-01-25T06:32:18.780Z,35.60
2019-01-25T06:34:49.328Z,37.90
2019-01-25T06:37:20.128Z,34.50
2019-01-25T06:39:50.985Z,26.53
2019-01-25T06:42:21.790Z,41.18
2019-01-25T06:44:52.290Z,28.50
2019-01-25T06:47:22.827Z,39.50
2019-01-25T06:49:53.321Z,31.40
2019-01-25T06:52:24.264Z,32.05
2019-01-25T06:54:55.009Z,31.20
2019-01-25T06:57:32.318Z,32.93
2019-01-25T07:00:02.966Z,33.67
2019-01-25T07:02:37.332Z,34.63
2019-01-25T07:05:09.044Z,33.20
2019-01-25T07:07:41.793Z,32.70
2019-01-25T07:10:16.885Z,31.63
2019-01-25T07:12:47.636Z,30.70
2019-01-25T07:15:21.740Z,42.87
2019-01-25T07:17:52.274Z,29.90
2019-01-25T07:20:22.874Z,35.90
2019-01-25T07:22:53.462Z,39.37
2019-01-25T07:25:24.238Z,36.03
2019-01-25T07:27:55.086Z,37.30
2019-01-25T07:30:25.873Z,33.95
2019-01-25T07:32:56.406Z,35.27
2019-01-25T07:35:26.955Z,32.93
2019-01-25T07:37:57.455Z,35.30
2019-01-25T07:40:28.503Z,33.73
2019-01-25T07:42:59.186Z,38.33
2019-01-25T07:45:30.157Z,40.23
2019-01-25T07:48:00.925Z,39.35
2019-01-25T07:50:31.467Z,35.83
2019-01-25T07:53:02.029Z,39.20
2019-01-25T07:55:32.539Z,40.70
2019-01-25T07:58:03.137Z,35.00
2019-01-25T08:00:33.887Z,40.05
2019-01-25T08:03:04.512Z,37.00
2019-01-25T08:05:35.100Z,30.90
2019-01-25T08:08:05.947Z,37.65
2019-01-25T08:10:36.503Z,41.53
2019-01-25T08:13:08.588Z,38.77
2019-01-25T08:15:39.119Z,36.40
2019-01-25T08:18:09.904Z,38.60
2019-01-25T08:20:40.397Z,37.43
2019-01-25T08:23:11.012Z,40.27
2019-01-25T08:25:41.552Z,36.83
2019-01-25T08:28:12.269Z,42.73
2019-01-25T08:30:43.129Z,41.08
2019-01-25T08:33:15.112Z,38.10
2019-01-25T08:35:45.907Z,41.33
2019-01-25T08:38:16.475Z,40.10
2019-01-25T08:40:47.078Z,49.17
2019-01-25T08:43:17.621Z,43.17
2019-01-25T08:45:49.440Z,43.40
2019-01-25T08:48:20.412Z,47.93
2019-01-25T08:50:51.106Z,46.90
2019-01-25T08:53:21.709Z,43.65
2019-01-25T08:55:52.287Z,46.07
2019-01-25T08:58:23.367Z,42.30
2019-01-25T09:00:54.167Z,39.55
2019-01-25T09:03:24.760Z,46.17
2019-01-25T09:05:55.329Z,43.10
2019-01-25T09:08:26.069Z,51.47
2019-01-25T09:10:56.591Z,42.60
2019-01-25T09:13:27.773Z,54.75
2019-01-25T09:15:58.270Z,45.80
2019-01-25T09:18:29.151Z,42.35
2019-01-25T09:20:59.685Z,41.00
2019-01-25T09:23:30.178Z,52.90
2019-01-25T09:26:01.305Z,45.87
2019-01-25T09:28:32.406Z,42.27
2019-01-25T09:31:03.232Z,40.23
2019-01-25T09:33:34.044Z,41.92
2019-01-25T09:36:04.669Z,39.77
2019-01-25T09:38:35.191Z,44.87
2019-01-25T09:41:05.808Z,44.73
2019-01-25T09:43:36.338Z,41.37
2019-01-25T09:46:06.907Z,41.93
2019-01-25T09:48:37.445Z,38.07
2019-01-25T09:51:08.183Z,37.00
2019-01-25T09:53:38.710Z,40.07
2019-01-25T09:56:09.253Z,41.93
2019-01-25T09:58:45.120Z,41.83
2019-01-25T10:01:16.016Z,39.67
2019-01-25T10:03:46.549Z,37.60
2019-01-25T10:06:17.448Z,40.97
2019-01-25T10:08:48.294Z,47.07
2019-01-25T10:11:19.166Z,40.35
2019-01-25T10:13:49.659Z,43.50
2019-01-25T10:16:20.895Z,33.57
2019-01-25T10:18:51.446Z,42.80
2019-01-25T10:21:22.261Z,35.20
2019-01-25T10:23:52.789Z,41.83
2019-01-25T10:26:23.373Z,34.90
2019-01-25T10:28:54.134Z,41.45
2019-01-25T10:31:24.938Z,40.40
2019-01-25T10:33:55.484Z,36.73
2019-01-25T10:36:26.394Z,35.88
2019-01-25T10:38:57.231Z,37.43
2019-01-25T10:41:27.738Z,34.10
2019-01-25T10:43:58.317Z,36.77
2019-01-25T10:46:29.133Z,40.70
2019-01-25T10:48:59.674Z,32.43
2019-01-25T10:51:30.478Z,39.30
2019-01-25T10:54:01.327Z,39.23
2019-01-25T10:56:31.821Z,41.90
2019-01-25T10:59:02.354Z,36.57
2019-01-25T11:01:32.918Z,34.10
2019-01-25T11:04:03.420Z,37.63
2019-01-25T11:06:34.229Z,33.55
2019-01-25T11:09:06.840Z,37.67
2019-01-25T11:11:37.413Z,34.10
2019-01-25T11:14:08.360Z,41.33
2019-01-25T11:16:38.900Z,38.30
2019-01-25T11:19:09.626Z,43.80
2019-01-25T11:21:40.521Z,34.60
2019-01-25T11:24:11.368Z,33.47
2019-01-25T11:26:41.892Z,30.97
2019-01-25T11:29:12.462Z,32.87
2019-01-25T11:31:43.312Z,34.70
2019-01-25T11:34:15.039Z,34.17
2019-01-25T11:36:45.979Z,29.70
2019-01-25T11:39:16.770Z,32.20
2019-01-25T11:41:47.370Z,32.87
2019-01-25T11:44:18.062Z,34.53
2019-01-25T11:46:48.658Z,29.77
2019-01-25T11:49:19.765Z,33.70
2019-01-25T11:51:50.631Z,35.33
2019-01-25T11:54:21.505Z,32.30
2019-01-25T11:56:52.345Z,36.58
2019-01-25T11:59:23.580Z,33.05
2019-01-25T12:01:55.890Z,38.27
2019-01-25T12:04:26.929Z,31.85
2019-01-25T12:06:57.612Z,35.37
2019-01-25T12:09:28.485Z,43.98
2019-01-25T12:11:59.066Z,32.80
2019-01-25T12:14:29.732Z,37.15
2019-01-25T12:17:00.413Z,32.63
2019-01-25T12:19:30.942Z,35.25
2019-01-25T12:22:01.718Z,34.33
2019-01-25T12:24:33.101Z,36.65
2019-01-25T12:27:03.666Z,41.93
2019-01-25T12:29:34.474Z,40.90
2019-01-25T12:32:05.237Z,39.60
2019-01-25T12:34:35.755Z,39.50
2019-01-25T12:37:06.732Z,44.35
2019-01-25T12:39:37.617Z,34.83
2019-01-25T12:42:08.535Z,36.63
2019-01-25T12:44:39.332Z,38.38
2019-01-25T12:47:09.918Z,37.20
2019-01-25T12:49:40.617Z,37.97
2019-01-25T12:52:12.048Z,39.33
2019-01-25T12:54:42.707Z,34.90
2019-01-25T12:57:13.510Z,39.10
2019-01-25T12:59:44.109Z,39.97
2019-01-25T13:02:15.939Z,39.58
2019-01-25T13:04:46.597Z,43.23
2019-01-25T13:07:17.898Z,36.93
2019-01-25T13:09:49.558Z,35.23
2019-01-25T13:12:25.097Z,39.27
2019-01-25T13:14:52.581Z,38.57
2019-01-25T13:17:23.772Z,38.13
2019-01-25T13:19:54.766Z,34.10
2019-01-25T13:22:25.885Z,32.45
2019-01-25T13:24:56.770Z,38.10
2019-01-25T13:27:27.713Z,37.75
2019-01-25T13:29:59.297Z,38.23
2019-01-25T13:32:29.971Z,32.95
2019-01-25T13:35:00.609Z,39.90
2019-01-25T13:37:31.586Z,36.65
2019-01-25T13:40:02.258Z,33.90
2019-01-25T13:42:33.071Z,31.20
2019-01-25T13:45:04.042Z,34.40
2019-01-25T13:47:34.925Z,36.90
2019-01-25T13:50:06.888Z,37.70
2019-01-25T13:52:37.578Z,34.77
2019-01-25T13:55:10.780Z,36.83
2019-01-25T13:57:41.350Z,39.93
2019-01-25T14:00:30.981Z,38.13
2019-01-25T14:03:02.029Z,38.80
2019-01-25T14:05:32.964Z,33.57
2019-01-25T14:08:03.632Z,33.80
2019-01-25T14:10:36.306Z,32.50
2019-01-25T14:13:07.268Z,38.20
2019-01-25T14:15:38.162Z,36.40
2019-01-25T14:18:08.862Z,36.50
2019-01-25T14:20:39.623Z,36.83
2019-01-25T14:23:10.198Z,35.50
2019-01-25T14:25:41.358Z,35.50
2019-01-25T14:28:11.883Z,29.80
2019-01-25T14:30:43.797Z,32.20
2019-01-25T14:33:15.531Z,35.57
2019-01-25T14:35:46.153Z,34.90
2019-01-25T14:38:18.129Z,36.50
2019-01-25T14:40:48.814Z,39.93
2019-01-25T14:43:20.034Z,34.27
2019-01-25T14:45:50.935Z,31.47
2019-01-25T14:48:21.807Z,35.45
2019-01-25T14:50:52.706Z,34.83
2019-01-25T14:53:23.336Z,35.67
2019-01-25T14:55:53.878Z,41.47
2019-01-25T14:58:24.942Z,32.63
2019-01-25T15:00:57.749Z,32.85
2019-01-25T15:03:28.505Z,31.87
2019-01-25T15:05:59.090Z,66.30
2019-01-25T15:08:30.232Z,43.20
2019-01-25T15:11:00.853Z,37.40
2019-01-25T15:13:32.088Z,33.58
2019-01-25T15:16:03.276Z,35.20
2019-01-25T15:18:34.337Z,35.97
2019-01-25T15:21:04.975Z,37.00
2019-01-25T15:23:35.780Z,37.87
2019-01-25T15:26:06.611Z,32.20
2019-01-25T15:28:37.189Z,33.30
2019-01-25T15:31:08.012Z,34.17
2019-01-25T15:33:38.923Z,32.27
2019-01-25T15:36:09.971Z,31.60
2019-01-25T15:38:40.867Z,42.70
2019-01-25T15:41:11.456Z,38.00
2019-01-25T15:43:42.143Z,32.37
2019-01-25T15:46:13.062Z,33.20
2019-01-25T15:48:43.920Z,34.67
2019-01-25T15:51:15.985Z,32.65
2019-01-25T15:53:46.762Z,39.20
2019-01-25T15:56:17.316Z,39.60
2019-01-25T15:58:47.961Z,36.57
2019-01-25T16:01:18.704Z,31.50
2019-01-25T16:03:49.303Z,33.67
2019-01-25T16:06:20.306Z,35.23
2019-01-25T16:08:50.864Z,31.93
2019-01-25T16:11:21.955Z,32.03
2019-01-25T16:13:52.946Z,32.17
2019-01-25T16:16:25.483Z,28.17
2019-01-25T16:18:56.091Z,28.33
2019-01-25T16:21:26.939Z,31.80
2019-01-25T16:23:57.806Z,25.57
2019-01-25T16:26:28.366Z,27.87
2019-01-25T16:28:58.903Z,26.13
2019-01-25T16:31:30.034Z,29.77
2019-01-25T16:34:00.680Z,26.50
2019-01-25T16:36:31.281Z,28.07
2019-01-25T16:39:02.077Z,28.47
2019-01-25T16:41:32.988Z,25.20
2019-01-25T16:44:03.888Z,27.93
2019-01-25T16:46:34.519Z,30.30
2019-01-25T16:49:05.297Z,34.13
2019-01-25T16:51:36.095Z,26.57
2019-01-25T16:54:07.162Z,28.33
2019-01-25T16:56:37.974Z,27.33
2019-01-25T16:59:08.813Z,32.15
2019-01-25T17:01:39.432Z,33.33
2019-01-25T17:04:10.149Z,32.00
2019-01-25T17:06:40.723Z,34.53
2019-01-25T17:09:11.485Z,37.20
2019-01-25T17:11:43.012Z,24.65
2019-01-25T17:14:14.080Z,26.95
2019-01-25T17:16:44.960Z,27.67
2019-01-25T17:19:16.383Z,26.65
2019-01-25T17:21:47.137Z,28.57
2019-01-25T17:24:18.017Z,30.30
2019-01-25T17:26:48.901Z,29.63
2019-01-25T17:29:19.507Z,29.10
2019-01-25T17:31:50.153Z,27.47
2019-01-25T17:34:20.758Z,28.35
2019-01-25T17:36:51.397Z,26.33
2019-01-25T17:39:22.259Z,28.77
2019-01-25T17:41:53.034Z,26.70
2019-01-25T17:44:23.633Z,33.33
2019-01-25T17:46:54.277Z,26.27
2019-01-25T17:49:25.223Z,28.13
2019-01-25T17:51:56.133Z,24.87
2019-01-25T17:54:27.012Z,30.88
2019-01-25T17:59:21.877Z,29.30
2019-01-25T18:01:52.538Z,26.20
2019-01-25T18:04:23.339Z,25.45
2019-01-25T18:06:54.276Z,26.13
2019-01-25T18:09:25.208Z,28.50
2019-01-25T18:11:56.202Z,27.13
2019-01-25T18:14:27.059Z,26.83
2019-01-25T18:16:57.633Z,25.20
2019-01-25T18:19:28.461Z,24.05
2019-01-25T18:22:00.570Z,23.40
2019-01-25T18:24:31.751Z,27.73
2019-01-25T18:27:02.356Z,24.03
2019-01-25T18:29:51.071Z,24.20
2019-01-25T18:32:24.123Z,24.35
2019-01-25T18:34:55.058Z,22.42
2019-01-25T18:37:26.337Z,27.15
2019-01-25T18:39:57.195Z,21.23
2019-01-25T18:42:28.049Z,22.60
2019-01-25T18:44:58.680Z,18.40
2019-01-25T18:47:29.367Z,22.60
2019-01-25T18:50:00.265Z,24.33
2019-01-25T18:52:31.450Z,20.40
2019-01-25T18:55:02.378Z,18.47
2019-01-25T18:57:33.209Z,18.10
2019-01-25T19:00:05.232Z,16.35
2019-01-25T19:02:36.175Z,20.17
2019-01-25T19:05:08.640Z,23.20
2019-01-25T19:07:39.369Z,16.03
2019-01-25T19:10:15.277Z,18.87
2019-01-25T19:12:45.956Z,15.40
2019-01-25T19:15:21.727Z,20.43
2019-01-25T19:17:52.367Z,20.10
2019-01-25T19:20:23.263Z,17.53
2019-01-25T19:22:54.236Z,18.33
2019-01-25T19:25:25.519Z,20.02
2019-01-25T19:27:56.318Z,18.90
2019-01-25T19:30:30.876Z,19.73
2019-01-25T19:33:01.556Z,21.00
2019-01-25T19:35:32.551Z,16.02
2019-01-25T19:38:03.533Z,21.43
2019-01-25T19:40:34.393Z,17.80
2019-01-25T19:43:05.835Z,20.23
2019-01-25T19:45:41.637Z,21.23
2019-01-25T19:48:12.228Z,22.23
2019-01-25T19:50:43.142Z,20.72
2019-01-25T19:53:13.699Z,22.77
2019-01-25T19:55:44.425Z,18.67
2019-01-25T19:58:18.880Z,23.48
2019-01-25T20:00:49.519Z,21.00
2019-01-25T20:03:20.476Z,21.83
2019-01-25T20:05:51.305Z,20.57
2019-01-25T20:08:22.284Z,19.98
2019-01-25T20:10:53.146Z,19.40
2019-01-25T20:13:24.032Z,20.77
2019-01-25T20:15:54.664Z,17.70
2019-01-25T20:18:25.493Z,22.35
2019-01-25T20:20:56.323Z,22.10
2019-01-25T20:23:27.297Z,21.40
2019-01-25T20:25:57.860Z,23.07
2019-01-25T20:28:28.582Z,20.68
2019-01-25T20:30:59.405Z,24.43
2019-01-25T20:33:30.328Z,18.80
2019-01-25T20:36:01.215Z,18.92
2019-01-25T20:38:31.822Z,16.63
2019-01-25T20:41:03.391Z,16.33
2019-01-25T20:43:34.726Z,17.10
2019-01-25T20:46:05.569Z,18.33
2019-01-25T20:48:37.173Z,16.00
2019-01-25T20:51:07.935Z,17.60
2019-01-25T20:53:38.564Z,16.40
2019-01-25T20:56:10.706Z,14.57
2019-01-25T20:58:41.426Z,17.37
2019-01-25T21:01:12.136Z,13.53
2019-01-25T21:03:42.729Z,13.77
2019-01-25T21:06:13.400Z,15.67
2019-01-25T21:08:44.234Z,13.03
2019-01-25T21:11:15.970Z,13.63
2019-01-25T21:13:46.595Z,11.93
2019-01-25T21:16:17.440Z,14.35
2019-01-25T21:18:48.005Z,11.07
2019-01-25T21:21:18.857Z,10.97
2019-01-25T21:23:49.472Z,13.80
2019-01-25T21:26:20.643Z,12.58
2019-01-25T21:28:51.621Z,13.17
2019-01-25T21:31:22.727Z,12.45
2019-01-25T21:33:53.810Z,12.33
2019-01-25T21:36:25.350Z,11.03
2019-01-25T21:38:59.147Z,10.23
2019-01-25T21:41:30.049Z,10.70
2019-01-25T21:44:00.811Z,9.27
2019-01-25T21:46:40.366Z,11.33
2019-01-25T21:49:10.566Z,9.10
2019-01-25T21:51:41.141Z,14.17
2019-01-25T21:54:12.004Z,11.73
2019-01-25T21:56:42.660Z,10.37
2019-01-25T21:59:15.155Z,9.70
2019-01-25T22:01:45.815Z,8.70
2019-01-25T22:04:19.213Z,10.40
2019-01-25T22:06:49.910Z,9.07
2019-01-25T22:09:21.022Z,11.47
2019-01-25T22:11:51.583Z,8.33
2019-01-25T22:14:24.467Z,10.43
2019-01-25T22:16:55.059Z,11.23
2019-01-25T22:19:26.126Z,11.60
2019-01-25T22:21:56.727Z,13.70
2019-01-25T22:24:27.678Z,9.80
2019-01-25T22:26:58.537Z,12.13
2019-01-25T22:29:29.528Z,8.53
2019-01-25T22:32:00.127Z,9.90
2019-01-25T22:34:31.085Z,9.70
2019-01-25T22:37:01.769Z,10.33
2019-01-25T22:39:32.646Z,8.28
2019-01-25T22:42:03.496Z,7.80
2019-01-25T22:44:34.087Z,11.10
2019-01-25T22:47:04.778Z,8.90
2019-01-25T22:49:35.549Z,10.27
2019-01-25T22:52:06.262Z,8.03
2019-01-25T22:54:38.282Z,8.43
2019-01-25T22:57:08.841Z,9.73
2019-01-25T22:59:39.578Z,8.77
2019-01-25T23:02:10.790Z,10.98
2019-01-25T23:05:31.991Z,7.67
2019-01-25T23:08:02.533Z,9.13
2019-01-25T23:10:33.515Z,9.25
2019-01-25T23:13:04.239Z,10.67
2019-01-25T23:15:35.109Z,11.73
2019-01-25T23:18:05.926Z,10.73
2019-01-25T23:20:36.619Z,10.60
2019-01-25T23:23:07.551Z,8.23
2019-01-25T23:25:39.549Z,9.30
2019-01-25T23:28:10.136Z,11.03
2019-01-25T23:30:40.686Z,7.40
2019-01-25T23:33:11.565Z,7.72
2019-01-25T23:35:42.115Z,9.00
2019-01-25T23:38:12.647Z,10.47
2019-01-25T23:40:43.260Z,10.27
2019-01-25T23:43:13.895Z,10.60
2019-01-25T23:45:44.706Z,8.80
2019-01-25T23:48:18.214Z,8.73
2019-01-25T23:50:48.816Z,6.67
2019-01-25T23:53:19.540Z,9.53
2019-01-25T23:55:50.081Z,8.03
2019-01-25T23:58:20.892Z,11.28
